createdAt,value
2018-07-19T00:01:03.257Z,21.90
2018-07-19T00:02:09.773Z,22.00
2018-07-19T00:03:14.845Z,21.90
2018-07-19T00:04:20.058Z,21.90
2018-07-19T00:05:25.212Z,21.90
2018-07-19T00:06:30.030Z,21.90
2018-07-19T00:07:35.984Z,21.90
2018-07-19T00:08:42.663Z,21.80
2018-07-19T00:09:47.464Z,21.80
2018-07-19T00:10:53.433Z,21.80
2018-07-19T00:11:59.526Z,21.80
2018-07-19T00:13:04.921Z,21.80
2018-07-19T00:14:11.066Z,21.80
2018-07-19T00:15:16.529Z,21.80
2018-07-19T00:16:22.483Z,21.80
2018-07-19T00:17:29.759Z,21.80
2018-07-19T00:18:34.408Z,21.70
2018-07-19T00:19:39.843Z,21.70
2018-07-19T00:20:48.600Z,21.70
2018-07-19T00:21:53.135Z,21.70
2018-07-19T00:22:58.900Z,21.70
2018-07-19T00:25:08.357Z,21.70
2018-07-19T00:26:16.184Z,21.70
2018-07-19T00:27:21.370Z,21.70
2018-07-19T00:28:26.582Z,21.70
2018-07-19T00:29:31.613Z,21.60
2018-07-19T00:30:36.469Z,21.60
2018-07-19T00:31:41.303Z,21.60
2018-07-19T00:32:46.430Z,21.60
2018-07-19T00:33:51.321Z,21.60
2018-07-19T00:34:56.063Z,21.60
2018-07-19T00:36:01.893Z,21.60
2018-07-19T00:37:06.420Z,23.00
2018-07-19T00:38:11.631Z,21.60
2018-07-19T00:39:16.092Z,21.60
2018-07-19T00:40:20.563Z,21.60
2018-07-19T00:41:25.477Z,21.60
2018-07-19T00:42:31.257Z,21.60
2018-07-19T00:43:36.139Z,21.60
2018-07-19T00:44:41.665Z,21.60
2018-07-19T00:45:46.497Z,21.60
2018-07-19T00:46:51.293Z,21.60
2018-07-19T00:47:56.813Z,21.60
2018-07-19T00:49:01.559Z,21.60
2018-07-19T00:50:06.816Z,21.60
2018-07-19T00:51:12.250Z,21.60
2018-07-19T00:52:16.967Z,21.50
2018-07-19T00:53:21.970Z,21.50
2018-07-19T00:54:26.611Z,21.50
2018-07-19T00:55:33.490Z,21.50
2018-07-19T00:56:38.796Z,21.50
2018-07-19T00:57:43.776Z,21.40
2018-07-19T00:59:38.835Z,21.40
2018-07-19T01:00:43.393Z,21.40
2018-07-19T01:01:48.308Z,21.40
2018-07-19T01:02:53.888Z,21.40
2018-07-19T01:03:58.808Z,21.40
2018-07-19T01:05:03.418Z,21.30
2018-07-19T01:06:08.952Z,21.30
2018-07-19T01:07:13.427Z,21.30
2018-07-19T01:08:18.410Z,21.30
2018-07-19T01:09:23.233Z,21.30
2018-07-19T01:10:28.083Z,21.30
2018-07-19T01:12:37.577Z,21.30
2018-07-19T01:13:43.648Z,21.30
2018-07-19T01:14:48.771Z,21.30
2018-07-19T01:15:53.840Z,21.30
2018-07-19T01:16:58.579Z,21.30
2018-07-19T01:18:03.199Z,21.20
2018-07-19T01:19:08.244Z,21.20
2018-07-19T01:20:12.929Z,21.20
2018-07-19T01:21:17.755Z,21.20
2018-07-19T01:22:22.986Z,21.20
2018-07-19T01:23:27.959Z,21.20
2018-07-19T01:24:34.226Z,23.30
2018-07-19T01:25:39.154Z,21.20
2018-07-19T01:26:44.085Z,21.20
2018-07-19T01:27:48.940Z,21.20
2018-07-19T01:28:53.943Z,21.20
2018-07-19T01:29:58.766Z,21.20
2018-07-19T01:31:03.839Z,21.20
2018-07-19T01:33:12.931Z,21.20
2018-07-19T01:34:17.484Z,21.10
2018-07-19T01:35:22.429Z,21.10
2018-07-19T01:36:27.170Z,21.10
2018-07-19T01:37:32.095Z,21.10
2018-07-19T01:38:36.996Z,21.10
2018-07-19T01:39:41.808Z,21.10
2018-07-19T01:40:46.559Z,21.10
2018-07-19T01:42:30.919Z,21.00
2018-07-19T01:43:36.951Z,21.00
2018-07-19T01:44:43.090Z,21.00
2018-07-19T01:45:48.239Z,21.00
2018-07-19T01:48:11.805Z,20.90
2018-07-19T01:49:16.921Z,20.90
2018-07-19T01:50:21.838Z,20.90
2018-07-19T01:51:26.672Z,20.80
2018-07-19T01:52:31.236Z,20.80
2018-07-19T01:53:36.412Z,20.80
2018-07-19T01:54:41.415Z,20.70
2018-07-19T01:55:46.462Z,20.80
2018-07-19T01:56:51.771Z,20.70
2018-07-19T01:57:57.251Z,20.70
2018-07-19T01:59:02.391Z,20.70
2018-07-19T02:00:07.877Z,20.70
2018-07-19T02:01:13.191Z,20.70
2018-07-19T02:03:23.454Z,20.60
2018-07-19T02:04:28.646Z,20.70
2018-07-19T02:05:33.941Z,20.60
2018-07-19T02:06:39.097Z,20.60
2018-07-19T02:07:44.407Z,20.60
2018-07-19T02:09:54.091Z,20.50
2018-07-19T02:10:59.401Z,20.50
2018-07-19T02:12:04.737Z,20.40
2018-07-19T02:13:09.807Z,20.30
2018-07-19T02:14:14.979Z,20.30
2018-07-19T02:15:19.888Z,20.30
2018-07-19T02:16:24.597Z,20.30
2018-07-19T02:18:34.455Z,20.20
2018-07-19T02:19:39.733Z,20.20
2018-07-19T02:20:44.908Z,20.20
2018-07-19T02:21:49.814Z,20.30
2018-07-19T02:22:54.794Z,20.30
2018-07-19T02:24:00.271Z,20.30
2018-07-19T02:27:14.375Z,20.20
2018-07-19T02:28:19.415Z,20.10
2018-07-19T02:29:25.954Z,20.10
2018-07-19T02:30:31.074Z,20.10
2018-07-19T02:31:36.841Z,20.00
2018-07-19T02:32:42.138Z,20.00
2018-07-19T02:33:46.999Z,20.00
2018-07-19T02:34:52.187Z,20.00
2018-07-19T02:35:58.053Z,20.00
2018-07-19T02:37:03.070Z,20.00
2018-07-19T02:38:08.116Z,19.90
2018-07-19T02:39:14.058Z,20.00
2018-07-19T02:40:19.071Z,20.00
2018-07-19T02:41:23.995Z,20.00
2018-07-19T02:42:29.610Z,20.00
2018-07-19T02:43:34.859Z,20.00
2018-07-19T02:44:39.950Z,20.00
2018-07-19T02:45:45.066Z,20.00
2018-07-19T02:47:55.519Z,20.00
2018-07-19T02:49:00.402Z,20.00
2018-07-19T02:50:06.020Z,20.00
2018-07-19T02:51:11.140Z,20.00
2018-07-19T02:52:16.722Z,20.00
2018-07-19T02:53:22.123Z,20.00
2018-07-19T02:54:27.562Z,20.10
2018-07-19T02:55:32.489Z,20.00
2018-07-19T02:56:37.771Z,20.10
2018-07-19T02:57:43.203Z,20.10
2018-07-19T02:58:48.041Z,20.10
2018-07-19T02:59:53.612Z,20.10
2018-07-19T03:00:58.854Z,20.10
2018-07-19T03:02:04.185Z,20.10
2018-07-19T03:03:09.158Z,20.10
2018-07-19T03:04:15.104Z,20.10
2018-07-19T03:05:20.209Z,20.10
2018-07-19T03:06:26.056Z,20.10
2018-07-19T03:07:31.271Z,20.00
2018-07-19T03:09:41.624Z,20.00
2018-07-19T03:10:46.647Z,20.00
2018-07-19T03:11:51.510Z,19.90
2018-07-19T03:12:56.501Z,19.90
2018-07-19T03:14:01.350Z,19.90
2018-07-19T03:15:06.430Z,19.90
2018-07-19T03:16:11.335Z,19.90
2018-07-19T03:17:16.648Z,19.80
2018-07-19T03:18:21.455Z,19.80
2018-07-19T03:19:27.091Z,19.80
2018-07-19T03:20:31.983Z,19.80
2018-07-19T03:21:37.049Z,19.70
2018-07-19T03:22:42.184Z,19.70
2018-07-19T03:23:48.041Z,19.70
2018-07-19T03:24:53.864Z,19.60
2018-07-19T03:25:58.885Z,19.60
2018-07-19T03:27:03.778Z,19.80
2018-07-19T03:28:09.115Z,19.60
2018-07-19T03:29:14.225Z,19.60
2018-07-19T03:30:19.435Z,19.60
2018-07-19T03:31:24.725Z,19.60
2018-07-19T03:32:29.546Z,19.60
2018-07-19T03:33:34.532Z,19.60
2018-07-19T03:34:39.785Z,19.60
2018-07-19T03:35:44.649Z,19.60
2018-07-19T03:36:50.042Z,19.60
2018-07-19T03:37:55.350Z,19.60
2018-07-19T03:39:01.125Z,19.60
2018-07-19T03:40:06.221Z,19.60
2018-07-19T03:41:11.656Z,19.80
2018-07-19T03:42:17.034Z,19.60
2018-07-19T03:43:23.111Z,19.60
2018-07-19T03:44:28.134Z,19.50
2018-07-19T03:45:32.969Z,19.50
2018-07-19T03:46:38.089Z,19.60
2018-07-19T03:47:44.029Z,19.50
2018-07-19T03:48:49.210Z,19.60
2018-07-19T03:49:54.448Z,19.60
2018-07-19T03:50:59.611Z,19.60
2018-07-19T03:52:04.594Z,19.60
2018-07-19T03:53:09.428Z,19.50
2018-07-19T03:54:14.680Z,19.60
2018-07-19T03:55:21.218Z,19.60
2018-07-19T03:56:26.641Z,19.60
2018-07-19T03:57:31.524Z,19.60
2018-07-19T03:58:36.680Z,19.60
2018-07-19T03:59:41.495Z,19.60
2018-07-19T04:00:46.468Z,19.60
2018-07-19T04:01:52.376Z,19.60
2018-07-19T04:02:57.547Z,19.60
2018-07-19T04:04:02.411Z,19.60
2018-07-19T04:05:07.662Z,19.60
2018-07-19T04:06:12.535Z,19.50
2018-07-19T04:07:17.782Z,19.50
2018-07-19T04:08:24.325Z,19.60
2018-07-19T04:09:29.447Z,19.60
2018-07-19T04:10:34.815Z,19.60
2018-07-19T04:11:40.215Z,19.60
2018-07-19T04:12:45.058Z,19.60
2018-07-19T04:13:50.320Z,19.60
2018-07-19T04:14:55.114Z,19.60
2018-07-19T04:16:00.972Z,19.60
2018-07-19T04:17:06.196Z,19.60
2018-07-19T04:18:11.456Z,19.60
2018-07-19T04:20:22.612Z,19.50
2018-07-19T04:23:08.013Z,19.60
2018-07-19T04:24:13.717Z,19.60
2018-07-19T04:25:19.600Z,19.50
2018-07-19T04:26:25.491Z,19.60
2018-07-19T04:27:30.786Z,19.50
2018-07-19T04:28:36.419Z,19.50
2018-07-19T04:29:41.242Z,19.50
2018-07-19T04:30:46.077Z,19.50
2018-07-19T04:31:51.742Z,19.50
2018-07-19T04:32:56.772Z,19.50
2018-07-19T04:34:01.689Z,19.50
2018-07-19T04:35:06.585Z,19.40
2018-07-19T04:36:11.406Z,19.50
2018-07-19T04:37:17.111Z,19.40
2018-07-19T04:38:22.288Z,19.40
2018-07-19T04:39:27.253Z,19.40
2018-07-19T04:40:32.180Z,19.40
2018-07-19T04:41:37.010Z,19.40
2018-07-19T04:42:42.104Z,19.40
2018-07-19T04:43:47.866Z,19.40
2018-07-19T04:44:52.750Z,19.40
2018-07-19T04:45:57.729Z,19.40
2018-07-19T04:47:02.609Z,19.40
2018-07-19T04:48:07.769Z,19.40
2018-07-19T04:49:12.702Z,19.40
2018-07-19T04:50:17.555Z,19.40
2018-07-19T04:51:22.625Z,19.50
2018-07-19T04:52:27.683Z,19.40
2018-07-19T04:53:33.077Z,19.50
2018-07-19T04:54:37.930Z,19.50
2018-07-19T04:55:43.301Z,19.50
2018-07-19T04:56:48.708Z,19.50
2018-07-19T04:57:54.827Z,19.50
2018-07-19T04:59:00.131Z,19.50
2018-07-19T05:00:05.565Z,19.50
2018-07-19T05:01:10.490Z,19.60
2018-07-19T05:02:15.866Z,19.60
2018-07-19T05:03:20.988Z,19.60
2018-07-19T05:04:26.333Z,19.60
2018-07-19T05:05:31.100Z,19.60
2018-07-19T05:06:36.359Z,19.60
2018-07-19T05:07:42.105Z,19.60
2018-07-19T05:08:47.217Z,19.60
2018-07-19T05:09:52.856Z,19.60
2018-07-19T05:10:58.217Z,19.60
2018-07-19T05:12:03.517Z,19.60
2018-07-19T05:13:08.671Z,19.60
2018-07-19T05:14:14.669Z,19.60
2018-07-19T05:15:19.582Z,19.60
2018-07-19T05:16:24.446Z,19.60
2018-07-19T05:17:29.548Z,19.60
2018-07-19T05:18:36.812Z,19.60
2018-07-19T05:19:42.706Z,19.60
2018-07-19T05:20:48.181Z,19.60
2018-07-19T05:21:53.472Z,19.70
2018-07-19T05:22:58.437Z,19.70
2018-07-19T05:24:03.830Z,19.70
2018-07-19T05:25:09.079Z,19.70
2018-07-19T05:26:16.843Z,19.70
2018-07-19T05:27:22.048Z,19.70
2018-07-19T05:28:27.030Z,19.70
2018-07-19T05:29:33.617Z,19.70
2018-07-19T05:30:38.503Z,19.60
2018-07-19T05:31:43.440Z,19.70
2018-07-19T05:32:48.627Z,19.70
2018-07-19T05:33:53.573Z,19.70
2018-07-19T05:34:59.821Z,19.70
2018-07-19T05:36:04.988Z,19.70
2018-07-19T05:37:09.863Z,19.70
2018-07-19T05:38:16.590Z,19.70
2018-07-19T05:39:21.853Z,19.70
2018-07-19T05:40:27.172Z,19.70
2018-07-19T05:41:32.612Z,19.70
2018-07-19T05:42:37.451Z,19.70
2018-07-19T05:43:42.460Z,19.90
2018-07-19T05:44:47.880Z,19.70
2018-07-19T05:45:53.134Z,19.70
2018-07-19T05:46:58.124Z,19.70
2018-07-19T05:48:03.310Z,19.70
2018-07-19T05:49:08.239Z,19.70
2018-07-19T05:51:13.750Z,19.70
2018-07-19T05:52:18.734Z,19.80
2018-07-19T05:53:23.552Z,19.80
2018-07-19T05:54:29.896Z,19.80
2018-07-19T05:55:39.624Z,19.80
2018-07-19T05:56:45.941Z,19.80
2018-07-19T05:57:51.564Z,19.80
2018-07-19T05:58:56.859Z,19.80
2018-07-19T06:00:02.341Z,19.80
2018-07-19T06:01:07.385Z,19.80
2018-07-19T06:02:12.636Z,19.90
2018-07-19T06:03:19.699Z,19.90
2018-07-19T06:04:24.500Z,19.90
2018-07-19T06:05:31.901Z,19.90
2018-07-19T06:06:37.451Z,19.90
2018-07-19T06:07:42.746Z,19.90
2018-07-19T06:08:47.703Z,20.00
2018-07-19T06:09:52.708Z,20.00
2018-07-19T06:10:57.847Z,20.00
2018-07-19T06:12:02.899Z,20.00
2018-07-19T06:13:07.895Z,20.10
2018-07-19T06:14:12.812Z,20.10
2018-07-19T06:15:19.127Z,20.10
2018-07-19T06:16:25.812Z,20.10
2018-07-19T06:17:31.421Z,20.10
2018-07-19T06:20:07.348Z,20.10
2018-07-19T06:21:13.198Z,20.20
2018-07-19T06:22:21.137Z,20.20
2018-07-19T06:24:39.092Z,20.30
2018-07-19T06:25:43.983Z,20.30
2018-07-19T06:26:50.672Z,20.30
2018-07-19T06:27:55.656Z,20.30
2018-07-19T06:29:00.724Z,20.30
2018-07-19T06:30:07.092Z,20.40
2018-07-19T06:31:12.448Z,20.40
2018-07-19T06:32:17.413Z,20.40
2018-07-19T06:33:25.951Z,20.40
2018-07-19T06:34:33.742Z,20.40
2018-07-19T06:35:39.132Z,20.50
2018-07-19T06:37:49.483Z,20.50
2018-07-19T06:38:55.274Z,20.50
2018-07-19T06:40:03.601Z,20.50
2018-07-19T06:41:09.414Z,20.60
2018-07-19T06:42:14.409Z,20.60
2018-07-19T06:43:19.559Z,20.60
2018-07-19T06:44:25.220Z,20.60
2018-07-19T06:45:30.366Z,20.60
2018-07-19T06:46:37.168Z,20.60
2018-07-19T06:47:51.573Z,20.60
2018-07-19T06:48:58.859Z,20.70
2018-07-19T06:50:13.041Z,20.70
2018-07-19T06:51:19.094Z,20.80
2018-07-19T06:52:27.320Z,20.80
2018-07-19T06:53:35.059Z,20.80
2018-07-19T06:54:39.914Z,20.80
2018-07-19T06:55:45.973Z,20.90
2018-07-19T06:56:51.657Z,20.90
2018-07-19T06:57:57.342Z,20.90
2018-07-19T06:59:04.651Z,21.00
2018-07-19T07:00:10.712Z,21.00
2018-07-19T07:01:16.690Z,21.00
2018-07-19T07:02:22.408Z,21.00
2018-07-19T07:03:27.209Z,21.00
2018-07-19T07:04:32.526Z,21.00
2018-07-19T07:05:38.219Z,21.10
2018-07-19T07:06:43.849Z,21.20
2018-07-19T07:07:48.668Z,21.20
2018-07-19T07:08:54.698Z,21.20
2018-07-19T07:10:00.075Z,21.30
2018-07-19T07:11:05.190Z,21.30
2018-07-19T07:12:10.094Z,21.40
2018-07-19T07:13:14.977Z,21.50
2018-07-19T07:14:20.210Z,21.50
2018-07-19T07:15:25.428Z,21.50
2018-07-19T07:16:30.643Z,21.60
2018-07-19T07:17:35.875Z,21.70
2018-07-19T07:18:41.175Z,21.70
2018-07-19T07:19:46.096Z,21.70
2018-07-19T07:20:50.910Z,21.80
2018-07-19T07:21:56.058Z,21.80
2018-07-19T07:23:01.877Z,21.80
2018-07-19T07:24:06.750Z,21.80
2018-07-19T07:25:12.235Z,21.80
2018-07-19T07:26:17.336Z,21.80
2018-07-19T07:27:22.728Z,21.80
2018-07-19T07:28:28.968Z,21.80
2018-07-19T07:29:34.767Z,21.80
2018-07-19T07:30:41.593Z,21.80
2018-07-19T07:31:47.130Z,21.90
2018-07-19T07:32:53.306Z,21.90
2018-07-19T07:33:59.880Z,21.90
2018-07-19T07:35:04.895Z,21.90
2018-07-19T07:36:10.105Z,22.00
2018-07-19T07:37:15.208Z,22.00
2018-07-19T07:38:20.794Z,22.00
2018-07-19T07:39:26.211Z,22.00
2018-07-19T07:40:31.209Z,22.10
2018-07-19T07:41:38.468Z,22.10
2018-07-19T07:42:43.292Z,22.10
2018-07-19T07:43:49.706Z,22.20
2018-07-19T07:44:54.600Z,22.20
2018-07-19T07:46:00.213Z,22.20
2018-07-19T07:47:06.296Z,22.20
2018-07-19T07:48:13.830Z,22.20
2018-07-19T07:49:20.404Z,22.30
2018-07-19T07:50:25.674Z,22.30
2018-07-19T07:51:36.200Z,22.30
2018-07-19T07:52:41.647Z,22.30
2018-07-19T07:53:47.059Z,22.40
2018-07-19T07:54:52.157Z,22.40
2018-07-19T07:55:57.195Z,22.50
2018-07-19T07:57:01.989Z,22.70
2018-07-19T07:58:06.843Z,22.60
2018-07-19T07:59:12.153Z,22.60
2018-07-19T08:00:17.103Z,22.60
2018-07-19T08:01:22.617Z,22.70
2018-07-19T08:02:28.064Z,22.70
2018-07-19T08:03:33.191Z,22.80
2018-07-19T08:04:38.219Z,22.80
2018-07-19T08:05:44.841Z,22.80
2018-07-19T08:06:50.066Z,22.90
2018-07-19T08:07:55.207Z,22.90
2018-07-19T08:09:01.879Z,22.90
2018-07-19T08:10:07.409Z,23.00
2018-07-19T08:11:12.498Z,22.90
2018-07-19T08:12:18.241Z,22.90
2018-07-19T08:13:23.108Z,23.00
2018-07-19T08:14:29.265Z,23.00
2018-07-19T08:15:34.389Z,23.00
2018-07-19T08:18:09.362Z,23.00
2018-07-19T08:19:15.045Z,23.00
2018-07-19T08:20:20.173Z,23.00
2018-07-19T08:21:25.060Z,23.00
2018-07-19T08:22:30.696Z,23.00
2018-07-19T08:23:35.962Z,23.00
2018-07-19T08:24:41.798Z,23.00
2018-07-19T08:25:54.380Z,23.00
2018-07-19T08:27:03.449Z,23.10
2018-07-19T08:28:09.548Z,23.10
2018-07-19T08:29:15.410Z,23.10
2018-07-19T08:30:29.202Z,23.20
2018-07-19T08:31:35.090Z,23.20
2018-07-19T08:32:40.206Z,23.30
2018-07-19T08:33:46.255Z,23.30
2018-07-19T08:34:52.570Z,23.30
2018-07-19T09:10:36.612Z,23.70
2018-07-19T09:11:42.106Z,23.70
2018-07-19T09:12:47.406Z,23.70
2018-07-19T09:13:55.263Z,23.70
2018-07-19T09:15:00.576Z,23.70
2018-07-19T09:16:10.936Z,23.80
2018-07-19T09:17:19.342Z,23.80
2018-07-19T09:18:26.466Z,23.80
2018-07-19T09:19:31.413Z,23.80
2018-07-19T09:20:37.713Z,23.90
2018-07-19T09:21:42.827Z,23.90
2018-07-19T09:22:48.120Z,23.90
2018-07-19T09:23:53.222Z,23.90
2018-07-19T09:25:10.227Z,24.00
2018-07-19T09:26:15.835Z,24.00
2018-07-19T09:27:22.513Z,24.10
2018-07-19T09:31:34.245Z,24.10
2018-07-19T09:32:47.737Z,24.20
2018-07-19T09:33:53.630Z,24.20
2018-07-19T09:34:59.097Z,24.30
2018-07-19T09:37:22.227Z,24.30
2018-07-19T09:38:27.525Z,24.30
2018-07-19T09:39:34.469Z,24.30
2018-07-19T09:40:40.908Z,24.30
2018-07-19T09:41:46.496Z,24.40
2018-07-19T09:42:51.728Z,24.40
2018-07-19T09:43:57.934Z,24.40
2018-07-19T09:45:03.593Z,24.40
2018-07-19T09:46:08.901Z,24.50
2018-07-19T09:47:15.212Z,24.50
2018-07-19T09:51:30.072Z,24.50
2018-07-19T09:52:35.138Z,24.50
2018-07-19T09:53:40.425Z,24.60
2018-07-19T09:54:54.386Z,24.60
2018-07-19T09:55:59.836Z,24.60
2018-07-19T09:57:04.714Z,24.70
2018-07-19T09:58:10.088Z,24.70
2018-07-19T09:59:15.110Z,24.70
2018-07-19T10:00:25.551Z,24.80
2018-07-19T10:01:30.654Z,24.80
2018-07-19T10:02:35.543Z,24.80
2018-07-19T10:03:45.426Z,24.90
2018-07-19T10:05:18.140Z,24.90
2018-07-19T10:06:24.376Z,24.90
2018-07-19T10:07:29.441Z,24.90
2018-07-19T10:08:34.265Z,24.90
2018-07-19T10:09:42.761Z,25.00
2018-07-19T10:10:54.186Z,25.00
2018-07-19T10:12:00.475Z,25.00
2018-07-19T10:13:07.208Z,25.00
2018-07-19T10:14:17.244Z,25.00
2018-07-19T10:15:25.917Z,25.00
2018-07-19T10:16:31.211Z,25.00
2018-07-19T10:17:37.341Z,25.00
2018-07-19T10:18:51.151Z,25.00
2018-07-19T10:19:58.238Z,25.10
2018-07-19T10:21:05.194Z,25.10
2018-07-19T10:22:10.793Z,25.20
2018-07-19T10:23:17.011Z,25.20
2018-07-19T10:24:22.383Z,25.20
2018-07-19T10:25:28.723Z,25.30
2018-07-19T10:26:41.357Z,25.30
2018-07-19T10:27:47.536Z,25.30
2018-07-19T10:29:04.423Z,25.30
2018-07-19T10:30:13.799Z,25.40
2018-07-19T10:31:20.324Z,25.40
2018-07-19T10:32:26.486Z,25.40
2018-07-19T10:33:33.358Z,25.50
2018-07-19T10:34:39.037Z,25.50
2018-07-19T10:35:46.707Z,25.50
2018-07-19T10:36:52.376Z,25.50
2018-07-19T10:37:57.579Z,25.60
2018-07-19T10:39:04.135Z,25.60
2018-07-19T10:40:09.637Z,25.70
2018-07-19T10:41:15.235Z,25.60
2018-07-19T10:42:24.187Z,25.60
2018-07-19T10:43:31.818Z,25.70
2018-07-19T10:44:37.597Z,25.70
2018-07-19T10:45:46.947Z,25.80
2018-07-19T10:46:51.844Z,25.80
2018-07-19T10:48:00.879Z,25.90
2018-07-19T10:49:06.098Z,25.90
2018-07-19T10:50:13.591Z,26.10
2018-07-19T10:51:18.909Z,26.10
2018-07-19T10:52:24.129Z,26.30
2018-07-19T10:53:30.355Z,26.40
2018-07-19T10:54:36.102Z,26.60
2018-07-19T10:55:41.830Z,26.80
2018-07-19T10:56:48.202Z,26.90
2018-07-19T10:57:55.106Z,27.20
2018-07-19T10:59:04.718Z,27.90
2018-07-19T11:00:12.833Z,28.80
2018-07-19T11:01:18.311Z,29.80
2018-07-19T11:02:25.145Z,30.80
2018-07-19T11:03:36.536Z,31.90
2018-07-19T11:04:48.604Z,33.00
2018-07-19T11:05:58.227Z,34.00
2018-07-19T11:07:04.707Z,34.80
2018-07-19T11:08:11.307Z,35.70
2018-07-19T11:09:16.713Z,35.80
2018-07-19T11:10:22.210Z,35.80
2018-07-19T11:11:29.349Z,35.50
2018-07-19T11:12:34.435Z,35.00
2018-07-19T11:13:40.556Z,34.40
2018-07-19T11:14:45.609Z,33.60
2018-07-19T11:15:51.129Z,32.90
2018-07-19T11:16:55.916Z,32.40
2018-07-19T11:18:01.012Z,31.80
2018-07-19T11:19:07.126Z,31.30
2018-07-19T11:20:13.258Z,30.80
2018-07-19T11:21:21.201Z,30.40
2018-07-19T11:22:27.217Z,29.90
2018-07-19T11:23:33.182Z,29.60
2018-07-19T11:24:38.405Z,29.20
2018-07-19T11:25:47.008Z,28.90
2018-07-19T11:26:52.485Z,28.60
2018-07-19T11:27:59.020Z,28.40
2018-07-19T11:29:06.149Z,28.20
2018-07-19T11:30:12.545Z,28.00
2018-07-19T11:31:18.784Z,27.80
2018-07-19T11:32:25.457Z,27.70
2018-07-19T11:33:32.124Z,27.60
2018-07-19T11:34:40.528Z,27.50
2018-07-19T11:35:47.699Z,27.40
2018-07-19T11:37:05.549Z,27.60
2018-07-19T11:38:19.512Z,27.60
2018-07-19T11:39:26.416Z,27.60
2018-07-19T11:40:32.190Z,27.70
2018-07-19T11:41:37.643Z,27.60
2018-07-19T11:42:43.906Z,27.70
2018-07-19T11:43:49.678Z,27.70
2018-07-19T11:44:55.297Z,27.80
2018-07-19T11:46:00.355Z,27.80
2018-07-19T11:47:07.742Z,27.80
2018-07-19T11:48:16.376Z,27.80
2018-07-19T11:49:21.622Z,27.80
2018-07-19T11:50:27.115Z,28.40
2018-07-19T11:51:32.504Z,29.70
2018-07-19T11:52:37.625Z,31.20
2018-07-19T11:53:43.069Z,32.10
2018-07-19T11:54:48.887Z,31.50
2018-07-19T11:55:53.870Z,31.30
2018-07-19T11:57:00.427Z,31.20
2018-07-19T11:58:06.474Z,31.00
2018-07-19T11:59:11.546Z,30.80
2018-07-19T12:00:16.444Z,30.60
2018-07-19T12:01:23.421Z,30.30
2018-07-19T12:02:29.844Z,30.10
2018-07-19T12:03:35.159Z,29.80
2018-07-19T12:04:40.391Z,29.60
2018-07-19T12:05:46.463Z,29.40
2018-07-19T12:06:51.392Z,29.20
2018-07-19T12:07:56.815Z,29.00
2018-07-19T12:09:01.986Z,28.80
2018-07-19T12:10:07.684Z,28.70
2018-07-19T12:11:13.194Z,28.60
2018-07-19T12:12:18.034Z,28.50
2018-07-19T12:13:25.194Z,28.40
2018-07-19T12:14:30.813Z,28.40
2018-07-19T12:15:35.899Z,28.30
2018-07-19T12:16:43.954Z,28.40
2018-07-19T12:17:50.070Z,28.50
2018-07-19T12:18:59.311Z,28.50
2018-07-19T12:20:04.258Z,28.50
2018-07-19T12:21:09.692Z,28.40
2018-07-19T12:22:15.148Z,28.50
2018-07-19T12:23:21.506Z,28.50
2018-07-19T12:24:26.380Z,28.60
2018-07-19T12:25:31.402Z,28.60
2018-07-19T12:26:39.736Z,28.70
2018-07-19T12:27:45.643Z,28.80
2018-07-19T12:28:53.404Z,28.80
2018-07-19T12:29:59.091Z,28.80
2018-07-19T12:31:06.529Z,28.80
2018-07-19T12:32:12.013Z,28.90
2018-07-19T12:33:17.194Z,29.00
2018-07-19T12:34:22.355Z,29.10
2018-07-19T12:35:28.889Z,29.10
2018-07-19T12:36:34.131Z,29.10
2018-07-19T12:37:40.439Z,29.10
2018-07-19T12:38:45.711Z,29.00
2018-07-19T12:39:51.525Z,29.00
2018-07-19T12:40:58.529Z,28.90
2018-07-19T12:42:03.700Z,28.80
2018-07-19T12:43:08.760Z,28.70
2018-07-19T12:44:15.257Z,28.70
2018-07-19T12:45:22.070Z,28.60
2018-07-19T12:46:26.907Z,28.50
2018-07-19T12:47:31.857Z,28.50
2018-07-19T12:48:38.259Z,28.50
2018-07-19T12:49:43.228Z,28.50
2018-07-19T12:50:49.291Z,28.50
2018-07-19T12:51:54.855Z,28.60
2018-07-19T12:53:01.694Z,28.60
2018-07-19T12:54:07.765Z,28.70
2018-07-19T12:55:13.197Z,28.80
2018-07-19T12:56:18.006Z,28.80
2018-07-19T12:57:23.580Z,28.90
2018-07-19T12:58:28.638Z,29.00
2018-07-19T12:59:36.386Z,29.00
2018-07-19T13:00:42.574Z,29.10
2018-07-19T13:01:48.803Z,29.10
2018-07-19T13:02:54.099Z,29.20
2018-07-19T13:03:59.208Z,29.20
2018-07-19T13:05:04.129Z,29.30
2018-07-19T13:06:09.129Z,29.30
2018-07-19T13:07:14.114Z,29.30
2018-07-19T13:08:20.434Z,29.30
2018-07-19T13:09:26.343Z,29.30
2018-07-19T13:10:32.050Z,29.30
2018-07-19T13:11:37.224Z,29.30
2018-07-19T13:12:42.309Z,29.30
2018-07-19T13:13:47.598Z,29.20
2018-07-19T13:14:52.946Z,29.20
2018-07-19T13:15:58.167Z,29.20
2018-07-19T13:17:03.406Z,29.10
2018-07-19T13:18:08.420Z,29.10
2018-07-19T13:19:15.596Z,29.10
2018-07-19T13:20:21.511Z,29.10
2018-07-19T13:21:27.315Z,29.00
2018-07-19T13:22:33.422Z,29.00
2018-07-19T13:23:39.104Z,29.00
2018-07-19T13:24:44.743Z,29.00
2018-07-19T13:25:52.825Z,29.00
2018-07-19T13:26:59.094Z,29.00
2018-07-19T13:28:04.240Z,29.00
2018-07-19T13:29:09.624Z,29.00
2018-07-19T13:30:14.467Z,29.00
2018-07-19T13:31:20.094Z,29.00
2018-07-19T13:32:25.506Z,29.00
2018-07-19T13:33:31.099Z,29.00
2018-07-19T13:34:38.159Z,29.00
2018-07-19T13:35:46.677Z,29.00
2018-07-19T13:36:53.841Z,29.10
2018-07-19T13:37:59.728Z,29.10
2018-07-19T13:39:07.248Z,29.00
2018-07-19T13:40:12.172Z,29.00
2018-07-19T13:41:17.269Z,28.90
2018-07-19T13:42:23.195Z,28.90
2018-07-19T13:43:28.214Z,28.80
2018-07-19T13:44:33.233Z,28.80
2018-07-19T13:45:38.064Z,28.80
2018-07-19T13:46:46.718Z,28.80
2018-07-19T13:47:52.124Z,28.80
2018-07-19T13:48:57.741Z,28.70
2018-07-19T13:50:04.713Z,28.70
2018-07-19T13:51:09.588Z,28.70
2018-07-19T13:52:15.272Z,28.70
2018-07-19T13:53:41.313Z,28.60
2018-07-19T13:54:48.700Z,28.60
2018-07-19T13:55:55.956Z,28.60
2018-07-19T13:57:01.810Z,28.60
2018-07-19T13:58:06.629Z,28.50
2018-07-19T13:59:12.499Z,28.40
2018-07-19T14:00:17.885Z,28.40
2018-07-19T14:01:23.187Z,28.30
2018-07-19T14:02:28.284Z,28.30
2018-07-19T14:03:33.462Z,28.30
2018-07-19T14:04:39.995Z,28.30
2018-07-19T14:05:46.497Z,28.30
2018-07-19T14:06:52.727Z,28.30
2018-07-19T14:07:58.533Z,28.30
2018-07-19T14:09:05.754Z,28.30
2018-07-19T14:10:12.276Z,28.30
2018-07-19T14:11:17.849Z,28.30
2018-07-19T14:12:22.768Z,28.30
2018-07-19T14:13:29.175Z,28.30
2018-07-19T14:14:34.143Z,28.30
2018-07-19T14:15:40.396Z,28.30
2018-07-19T14:16:45.455Z,28.30
2018-07-19T14:17:50.274Z,28.30
2018-07-19T14:18:55.108Z,28.30
2018-07-19T14:20:00.218Z,28.30
2018-07-19T14:21:06.079Z,28.30
2018-07-19T14:22:12.207Z,28.30
2018-07-19T14:23:19.546Z,28.30
2018-07-19T14:24:25.814Z,28.20
2018-07-19T14:25:33.049Z,28.20
2018-07-19T14:26:39.415Z,28.20
2018-07-19T14:27:46.218Z,28.20
2018-07-19T14:28:52.089Z,28.20
2018-07-19T14:29:58.056Z,28.20
2018-07-19T14:31:03.623Z,28.20
2018-07-19T14:32:09.887Z,28.20
2018-07-19T14:33:21.728Z,28.20
2018-07-19T14:34:26.944Z,28.20
2018-07-19T14:35:32.304Z,28.20
2018-07-19T14:36:37.264Z,28.20
2018-07-19T14:37:42.422Z,28.20
2018-07-19T14:38:50.663Z,28.20
2018-07-19T14:39:55.932Z,28.20
2018-07-19T14:41:01.361Z,28.20
2018-07-19T14:42:06.904Z,28.20
2018-07-19T14:43:12.440Z,28.20
2018-07-19T14:44:20.393Z,28.20
2018-07-19T14:45:26.647Z,28.20
2018-07-19T14:46:32.085Z,28.20
2018-07-19T14:47:39.214Z,28.20
2018-07-19T14:48:46.073Z,28.20
2018-07-19T14:49:53.202Z,28.20
2018-07-19T14:50:58.580Z,28.30
2018-07-19T14:52:04.580Z,28.50
2018-07-19T14:53:09.846Z,28.90
2018-07-19T14:54:15.414Z,29.10
2018-07-19T14:55:20.687Z,29.40
2018-07-19T14:56:26.075Z,29.60
2018-07-19T14:57:32.396Z,29.60
2018-07-19T14:58:37.828Z,29.50
2018-07-19T14:59:43.211Z,29.40
2018-07-19T15:00:49.196Z,29.30
2018-07-19T15:01:54.094Z,29.20
2018-07-19T15:02:59.778Z,29.00
2018-07-19T15:04:05.151Z,28.90
2018-07-19T15:05:09.997Z,28.80
2018-07-19T15:06:16.102Z,28.70
2018-07-19T15:07:23.787Z,28.60
2018-07-19T15:08:29.839Z,28.50
2018-07-19T15:09:35.225Z,28.40
2018-07-19T15:10:40.069Z,28.40
2018-07-19T15:11:46.500Z,28.40
2018-07-19T15:12:52.209Z,28.40
2018-07-19T15:14:00.200Z,28.40